HDAM/JIB METAR and TAF weather

Enter ICAO airport designator
Station Type Date Time Source
HDAM METAR 2020/03/29 10:00 UTC NOAA

HDAM 291000Z 08009KT 9999 FEW023 32/24 Q1010


Station Type Date Time Source
HDAM Decoded METAR 2020/03/29 10:00 UTC NOAA

Djibouti \ Ambouli, Djibouti (HDAM) 11-33N 043-10E
Mar 29, 2020 - 06:00 AM EDT / 2020.03.29 1000 UTC
Wind: from the E (080 degrees) at 10 MPH (9 KT):0
Visibility: greater than 7 mile(s):0
Sky conditions: mostly clear
Temperature: 89 F (32 C)
Heat index: 98.4 F (36.9 C):1
Dew Point: 75 F (24 C)
Relative Humidity: 62%
Pressure (altimeter): 29.83 in. Hg (1010 hPa)
ob: HDAM 291000Z 08009KT 9999 FEW023 32/24 Q1010
cycle: 10

Station Type Date Time Source
HDAM TAF 2020/03/30 06:27 UTC NOAA

TAF TAF HDAM 300500Z 3006/3106 08010KT 9999 SCT023 BKN030
BECMG 3015/3021 VRB05KT FEW020
BECMG 3100/3106 00000KT SCT020

Example: see airport list